Time;durP1;ratioP1;P1;durP2;ratioP2;P2;SDS_P1;SDS_P2;PMS_P1;PMS_P2;Temp;Humidity;BMP_temperature;BMP_pressure;BME280_temperature;BME280_humidity;BME280_pressure;Samples;Min_cycle;Max_cycle;Signal;HPM_P1;HPM_P2
2021/01/05 00:00:13;;;;;;;16.77;10.58;;;;;;;2.99;76.87;101713.92;1757210;80;21145;-74
2021/01/05 00:02:41;;;;;;;14.45;10.63;;;;;;;3.01;76.91;101704.41;1788417;78;21053;-73
2021/01/05 00:05:15;;;;;;;16.27;11.48;;;;;;;3.01;76.97;101710.44;1757173;80;21062;-74
2021/01/05 00:07:43;;;;;;;11.38;8.78;;;;;;;3.01;76.74;101713.47;1669485;84;21402;-74
2021/01/05 00:10:11;;;;;;;10.60;7.72;;;;;;;3.00;76.61;101711.33;1669451;84;20916;-74
2021/01/05 00:12:40;;;;;;;10.95;7.65;;;;;;;3.00;76.50;101716.92;1669354;84;21244;-75
2021/01/05 00:15:10;;;;;;;9.38;8.05;;;;;;;2.97;76.29;101718.27;1669382;84;21007;-74
2021/01/05 00:17:39;;;;;;;13.45;9.25;;;;;;;2.91;76.44;101710.11;1689312;84;21071;-74
2021/01/05 00:20:12;;;;;;;11.40;9.45;;;;;;;2.89;76.48;101711.44;1663325;85;21023;-74
2021/01/05 00:22:41;;;;;;;12.23;9.00;;;;;;;2.85;76.49;101704.57;1663476;85;21114;-75
2021/01/05 00:25:11;;;;;;;15.13;9.93;;;;;;;2.83;76.58;101690.77;1663393;85;21192;-73
2021/01/05 00:27:38;;;;;;;16.12;10.72;;;;;;;2.86;76.59;101700.23;1686608;85;21003;-74
2021/01/05 00:30:16;;;;;;;21.00;12.03;;;;;;;2.85;76.66;101702.42;1648256;85;20986;-73
2021/01/05 00:32:46;;;;;;;23.95;15.93;;;;;;;2.83;76.76;101695.10;1689284;85;20991;-74
2021/01/05 00:35:18;;;;;;;26.85;16.23;;;;;;;2.82;76.93;101702.44;1663397;85;20981;-75
2021/01/05 00:37:47;;;;;;;19.95;12.75;;;;;;;2.82;77.00;101690.33;1663439;85;22270;-76
2021/01/05 00:40:16;;;;;;;17.62;12.33;;;;;;;2.83;77.06;101697.25;1672449;85;21022;-75
2021/01/05 00:42:44;;;;;;;20.60;13.48;;;;;;;2.85;76.96;101697.24;1689331;85;20962;-75
2021/01/05 00:45:35;;;;;;;23.15;13.70;;;;;;;2.87;76.95;101699.38;1689806;82;20953;-75
2021/01/05 00:48:04;;;;;;;12.00;8.55;;;;;;;2.90;76.86;101695.00;1778410;79;21479;-74
2021/01/05 00:50:33;;;;;;;9.18;7.90;;;;;;;2.91;76.34;101691.97;1778417;79;21934;-75
2021/01/05 00:53:03;;;;;;;16.30;10.60;;;;;;;2.84;76.21;101691.18;1778193;79;21018;-74
2021/01/05 00:55:31;;;;;;;16.57;11.70;;;;;;;2.82;76.29;101681.72;1778408;79;21567;-74
2021/01/05 00:58:00;;;;;;;15.05;10.88;;;;;;;2.81;76.41;101682.16;1778467;79;21563;-75
2021/01/05 01:00:33;;;;;;;17.02;11.40;;;;;;;2.78;76.43;101674.44;1778583;79;21579;-75
2021/01/05 01:03:03;;;;;;;19.05;11.38;;;;;;;2.80;76.44;101671.80;1777728;79;21648;-74
2021/01/05 01:05:33;;;;;;;18.67;12.23;;;;;;;2.81;76.45;101677.42;1778492;79;21396;-75
2021/01/05 01:08:01;;;;;;;17.92;11.18;;;;;;;2.82;76.54;101680.41;1778847;79;20954;-75
2021/01/05 01:10:30;;;;;;;36.08;21.15;;;;;;;2.85;76.52;101677.37;1779205;79;21622;-74
2021/01/05 01:12:58;;;;;;;25.32;14.85;;;;;;;2.87;76.45;101679.95;1780805;79;21038;-74
2021/01/05 01:15:27;;;;;;;18.62;13.18;;;;;;;2.86;76.48;101682.95;1781664;79;21189;-75
2021/01/05 01:17:55;;;;;;;14.20;11.12;;;;;;;2.86;76.41;101685.55;1785927;78;20919;-75
2021/01/05 01:20:23;;;;;;;12.88;9.68;;;;;;;2.84;76.10;101678.23;1757537;80;20976;-76
2021/01/05 01:22:51;;;;;;;13.45;8.03;;;;;;;2.85;75.88;101675.22;1757168;80;20962;-75
2021/01/05 01:25:20;;;;;;;13.50;10.28;;;;;;;2.83;75.79;101673.09;1757121;80;21014;-75
2021/01/05 01:27:48;;;;;;;13.15;8.90;;;;;;;2.76;75.71;101673.59;1788202;80;21555;-76
2021/01/05 01:30:19;;;;;;;13.88;8.55;;;;;;;2.67;75.82;101671.09;1756109;80;21040;-75
2021/01/05 01:32:54;;;;;;;12.45;8.63;;;;;;;2.59;75.74;101664.69;1787942;78;21508;-74
2021/01/05 01:35:24;;;;;;;14.60;9.18;;;;;;;2.52;75.85;101668.66;1757226;80;20949;-75
2021/01/05 01:37:52;;;;;;;10.95;8.18;;;;;;;2.48;75.94;101667.81;1788392;78;20951;-74
2021/01/05 01:40:28;;;;;;;10.25;8.08;;;;;;;2.45;76.04;101676.92;1757012;79;21159;-75
2021/01/05 01:42:56;;;;;;;12.35;8.98;;;;;;;2.40;76.22;101664.02;1787334;78;20934;-75
2021/01/05 01:45:25;;;;;;;10.65;7.72;;;;;;;2.39;76.31;101662.73;1732854;80;20914;-74
2021/01/05 01:47:55;;;;;;;16.30;11.08;;;;;;;2.38;76.39;101651.94;1788138;78;20903;-75
2021/01/05 01:50:27;;;;;;;14.95;8.90;;;;;;;2.36;76.41;101651.13;1757294;80;20919;-75
2021/01/05 01:53:25;;;;;;;13.53;9.90;;;;;;;2.35;76.47;101646.80;1757165;80;21020;-75
2021/01/05 01:56:23;;;;;;;17.62;10.65;;;;;;;2.35;76.51;101651.98;1756810;79;21586;-74
2021/01/05 01:59:20;;;;;;;13.18;8.55;;;;;;;2.38;76.58;101652.83;1786360;78;20943;-76
2021/01/05 02:01:59;;;;;;;15.38;8.65;;;;;;;2.41;76.36;101651.93;1746772;78;21034;-74
2021/01/05 02:04:54;;;;;;;14.05;10.03;;;;;;;2.41;76.10;101659.70;1756650;80;20961;-75
2021/01/05 02:08:06;;;;;;;11.60;7.97;;;;;;;2.37;76.16;101653.67;1787752;78;21175;-75
2021/01/05 02:10:55;;;;;;;14.70;8.80;;;;;;;2.35;76.10;101654.57;1757021;80;20953;-76
2021/01/05 02:13:37;;;;;;;11.45;9.08;;;;;;;2.30;76.19;101653.32;1787454;78;20959;-75
2021/01/05 02:16:39;;;;;;;17.90;9.95;;;;;;;2.24;76.33;101640.42;1788179;78;21108;-75
2021/01/05 02:19:33;;;;;;;21.73;13.20;;;;;;;2.22;76.42;101642.17;1761177;79;21510;-75
2021/01/05 02:22:49;;;;;;;18.57;12.13;;;;;;;2.19;77.02;101640.47;1793665;78;21228;-74
2021/01/05 02:25:53;;;;;;;14.93;10.78;;;;;;;2.19;77.02;101640.47;1762160;80;21152;-75
2021/01/05 02:28:24;;;;;;;20.30;13.43;;;;;;;2.18;76.40;101634.00;1793642;78;21400;-75
2021/01/05 02:30:58;;;;;;;21.65;12.50;;;;;;;2.12;76.30;101629.77;1762140;80;21656;-75
2021/01/05 02:33:47;;;;;;;24.45;13.53;;;;;;;2.06;76.38;101629.36;1793434;78;21495;-75
2021/01/05 02:36:50;;;;;;;20.37;12.07;;;;;;;2.03;76.34;101628.55;1762032;80;21174;-74
2021/01/05 02:40:04;;;;;;;21.00;12.03;;;;;;;2.03;75.91;101637.16;1847699;76;22341;-75
2021/01/05 02:43:28;;;;;;;16.32;11.22;;;;;;;1.91;75.72;101638.98;1786129;79;20938;-74
2021/01/05 02:46:50;;;;;;;19.62;12.13;;;;;;;1.80;76.04;101627.01;1736537;81;21058;-76
2021/01/05 02:49:47;;;;;;;17.80;11.70;;;;;;;1.78;76.39;101620.10;1845968;76;22651;-74
2021/01/05 02:53:29;;;;;;;28.90;17.75;;;;;;;1.74;76.45;101618.44;1786154;79;20887;-75
2021/01/05 02:56:40;;;;;;;19.55;11.83;;;;;;;1.72;76.28;101626.64;1786172;79;20953;-74
2021/01/05 03:00:14;;;;;;;20.72;12.55;;;;;;;1.64;76.04;101621.06;1784675;79;20899;-76
2021/01/05 03:03:25;;;;;;;23.27;13.68;;;;;;;1.57;76.25;101626.30;1786295;79;21076;-74
2021/01/05 03:06:23;;;;;;;17.52;13.20;;;;;;;1.49;76.60;101616.02;1786168;79;21001;-74
2021/01/05 03:09:52;;;;;;;21.25;13.65;;;;;;;1.43;76.74;101620.78;1784719;79;21021;-75
2021/01/05 03:13:08;;;;;;;22.80;14.20;;;;;;;1.40;76.78;101619.52;1786040;79;21006;-74
2021/01/05 03:16:17;;;;;;;;;;;;;;;1.39;76.60;101616.94;1787278;79;20946;-75
2021/01/05 03:19:25;;;;;;;27.67;15.25;;;;;;;1.37;76.67;101613.50;1786372;79;20430;-75
2021/01/05 03:22:12;;;;;;;13.90;9.93;;;;;;;1.33;76.74;101607.47;1786058;79;20958;-74
2021/01/05 03:25:00;;;;;;;13.50;9.00;;;;;;;1.35;76.37;101608.33;1817823;77;21022;-74
2021/01/05 03:27:46;;;;;;;13.05;8.00;;;;;;;1.29;76.24;101603.22;1784691;79;21143;-74
2021/01/05 03:30:45;;;;;;;11.20;8.70;;;;;;;1.26;76.40;101603.66;1759022;79;20947;-74
2021/01/05 03:33:31;;;;;;;14.33;9.90;;;;;;;1.23;76.56;101596.78;1767774;79;20982;-74
2021/01/05 03:36:18;;;;;;;27.20;17.90;;;;;;;1.20;76.88;101590.33;1784784;79;21034;-76
2021/01/05 03:38:50;;;;;;;19.00;13.80;;;;;;;1.17;77.07;101599.39;1771546;79;21005;-75
2021/01/05 03:41:36;;;;;;;20.12;11.80;;;;;;;1.14;77.20;101591.67;1786245;79;21373;-73
2021/01/05 03:44:11;;;;;;;20.35;12.33;;;;;;;1.13;77.07;101598.54;1770110;79;20986;-73
2021/01/05 03:46:58;;;;;;;17.82;11.85;;;;;;;1.10;76.86;101602.45;1786221;79;21029;-75
2021/01/05 03:49:44;;;;;;;14.47;9.70;;;;;;;1.03;76.99;101599.47;1786023;79;21085;-74
2021/01/05 03:52:32;;;;;;;12.70;8.68;;;;;;;0.96;77.16;101601.23;1784736;79;20935;-74
2021/01/05 03:55:19;;;;;;;13.78;8.83;;;;;;;0.91;77.35;101600.40;1784764;79;21050;-75
2021/01/05 03:58:05;;;;;;;15.10;9.05;;;;;;;0.92;77.37;101602.10;1817654;77;20970;-75
2021/01/05 04:00:51;;;;;;;22.02;13.20;;;;;;;0.90;77.10;101600.39;1767634;79;23909;-75
2021/01/05 04:04:48;;;;;;;16.15;9.40;;;;;;;0.85;77.33;101587.95;1816085;78;22676;-74
2021/01/05 04:07:16;;;;;;;15.75;9.20;;;;;;;0.75;77.27;101593.56;1758478;80;21005;-74
2021/01/05 04:09:44;;;;;;;17.23;10.63;;;;;;;0.73;77.33;101594.84;1758357;80;22517;-75
2021/01/05 04:12:12;;;;;;;31.93;19.25;;;;;;;0.73;77.44;101583.66;1758357;80;20970;-73
2021/01/05 04:14:40;;;;;;;27.32;14.93;;;;;;;0.71;77.67;101586.69;1758197;80;20981;-74
2021/01/05 04:17:07;;;;;;;21.17;13.38;;;;;;;0.66;77.83;101584.56;1758513;80;20997;-75
2021/01/05 04:19:36;;;;;;;13.08;8.63;;;;;;;0.68;77.85;101576.37;1758384;80;20942;-74
2021/01/05 04:22:04;;;;;;;11.18;8.65;;;;;;;0.71;77.38;101591.44;1758471;80;20982;-75
2021/01/05 04:24:32;;;;;;;8.28;6.33;;;;;;;0.72;77.21;101582.81;1758397;80;20949;-73
2021/01/05 04:27:01;;;;;;;9.28;6.58;;;;;;;0.71;77.06;101586.69;1757858;80;20966;-73
2021/01/05 04:29:29;;;;;;;10.03;7.50;;;;;;;0.66;76.87;101584.12;1728574;81;20970;-74
2021/01/05 04:31:57;;;;;;;9.88;7.03;;;;;;;0.62;76.93;101599.19;1729084;81;21045;-73
2021/01/05 04:34:25;;;;;;;11.80;7.22;;;;;;;0.59;77.04;101598.77;1729624;81;21140;-74
2021/01/05 04:36:53;;;;;;;8.78;6.75;;;;;;;0.60;77.15;101582.44;1729341;81;20961;-74
2021/01/05 04:39:21;;;;;;;11.00;7.47;;;;;;;0.62;77.34;101594.02;1729805;81;20950;-73
2021/01/05 04:42:21;;;;;;;9.10;7.20;;;;;;;0.62;77.14;101588.86;1729491;81;21021;-74
2021/01/05 04:45:00;;;;;;;13.43;7.72;;;;;;;0.61;77.18;101595.75;1731670;81;20994;-69
2021/01/05 04:48:04;;;;;;;11.00;8.15;;;;;;;0.63;77.14;101589.30;1755331;81;21450;-73
2021/01/05 04:50:52;;;;;;;10.45;7.45;;;;;;;0.66;77.20;101597.47;1728830;80;21388;-71
2021/01/05 04:53:29;;;;;;;15.23;8.48;;;;;;;0.65;77.16;101596.61;1729230;81;20935;-72
2021/01/05 04:56:05;;;;;;;11.10;8.23;;;;;;;0.62;77.22;101594.02;1728959;81;21010;-75
2021/01/05 04:58:50;;;;;;;13.75;8.13;;;;;;;0.59;77.30;101600.05;1728424;81;20958;-74
2021/01/05 05:01:25;;;;;;;16.25;8.53;;;;;;;0.61;77.33;101608.66;1706818;81;21015;-73
2021/01/05 05:04:16;;;;;;;12.63;8.38;;;;;;;0.61;77.36;101606.52;1722484;82;21077;-74
2021/01/05 05:06:53;;;;;;;11.73;7.90;;;;;;;0.63;77.36;101618.14;1717770;82;21492;-74
2021/01/05 05:09:41;;;;;;;12.98;8.63;;;;;;;0.64;77.15;101608.22;1717790;82;20963;-74
2021/01/05 05:12:35;;;;;;;12.25;8.55;;;;;;;0.64;76.91;101614.68;1718291;82;21014;-74
2021/01/05 05:15:29;;;;;;;13.90;8.35;;;;;;;0.63;76.89;101625.44;1717593;82;21136;-74
2021/01/05 05:18:23;;;;;;;15.23;10.13;;;;;;;0.61;76.92;101613.82;1744547;81;21504;-76
2021/01/05 05:21:18;;;;;;;18.37;10.08;;;;;;;0.55;76.99;101625.88;1717299;80;20970;-74
2021/01/05 05:24:07;;;;;;;18.87;10.72;;;;;;;0.47;77.03;101623.73;1717461;82;21654;-73
2021/01/05 05:27:17;;;;;;;14.10;8.40;;;;;;;0.44;77.17;101618.59;1717291;82;21070;-74
2021/01/05 05:29:58;;;;;;;14.18;10.43;;;;;;;0.44;77.26;101622.47;1717502;82;22461;-76
2021/01/05 05:32:37;;;;;;;19.55;10.38;;;;;;;0.41;77.36;101616.89;1694398;82;21388;-73
2021/01/05 05:35:22;;;;;;;13.40;10.15;;;;;;;0.41;77.50;101640.11;1717433;82;21049;-74
2021/01/05 05:37:59;;;;;;;14.40;9.05;;;;;;;0.43;77.33;101631.09;1717506;82;21073;-74
2021/01/05 05:40:40;;;;;;;13.90;9.90;;;;;;;0.47;77.26;101631.08;1717401;82;21031;-73
2021/01/05 05:43:44;;;;;;;13.90;10.35;;;;;;;0.51;77.25;101647.39;1717521;82;22634;-75
2021/01/05 05:46:24;;;;;;;19.10;11.55;;;;;;;0.53;77.16;101657.28;1716669;82;20979;-74
2021/01/05 05:49:05;;;;;;;15.70;9.65;;;;;;;0.53;77.09;101649.54;1717399;82;20979;-73
2021/01/05 05:51:40;;;;;;;14.18;9.85;;;;;;;0.53;76.80;101648.25;1717294;82;20958;-74
2021/01/05 05:54:18;;;;;;;14.13;10.45;;;;;;;0.52;76.60;101647.84;1717406;82;21002;-74
2021/01/05 05:57:12;;;;;;;14.90;9.75;;;;;;;0.48;76.51;101661.16;1717472;82;21057;-73
2021/01/05 05:59:49;;;;;;;13.80;9.63;;;;;;;0.45;76.36;101654.73;1717453;82;20974;-73
2021/01/05 06:02:19;;;;;;;15.35;10.80;;;;;;;0.40;76.49;101644.82;1717296;82;21136;-73
2021/01/05 06:04:47;;;;;;;19.62;11.88;;;;;;;0.36;76.79;101646.56;1722996;81;20968;-74
2021/01/05 06:07:15;;;;;;;15.43;10.25;;;;;;;0.39;76.85;101652.15;1724696;80;21061;-74
2021/01/05 06:09:43;;;;;;;14.58;10.90;;;;;;;0.38;76.77;101644.84;1724790;81;21278;-74
2021/01/05 06:12:11;;;;;;;15.65;9.38;;;;;;;0.37;76.85;101642.26;1724676;81;20973;-76
2021/01/05 06:14:39;;;;;;;13.43;10.30;;;;;;;0.37;76.92;101656.45;1724788;80;21456;-74
2021/01/05 06:17:07;;;;;;;17.32;11.12;;;;;;;0.36;76.89;101644.42;1724718;81;21045;-74
2021/01/05 06:19:35;;;;;;;19.40;12.10;;;;;;;0.34;77.03;101646.14;1724668;81;21037;-75
2021/01/05 06:22:03;;;;;;;12.43;9.63;;;;;;;0.36;77.06;101632.38;1724605;81;21096;-74
2021/01/05 06:24:30;;;;;;;15.08;11.12;;;;;;;0.40;76.97;101637.08;1724729;81;21412;-75
2021/01/05 06:26:58;;;;;;;15.80;11.68;;;;;;;0.42;76.88;101631.48;1724864;81;21022;-74
2021/01/05 06:29:27;;;;;;;17.55;11.90;;;;;;;0.42;76.95;101621.17;1724760;81;21045;-74
2021/01/05 06:31:55;;;;;;;15.43;10.28;;;;;;;0.43;76.98;101623.34;1724708;81;21069;-74
2021/01/05 06:34:24;;;;;;;16.87;12.05;;;;;;;0.43;76.95;101624.20;1724740;81;21179;-74
2021/01/05 06:36:52;;;;;;;21.17;14.10;;;;;;;0.46;76.91;101622.03;1724610;81;21053;-75
2021/01/05 06:39:20;;;;;;;19.65;12.55;;;;;;;0.47;76.98;101619.87;1724752;81;21435;-73
2021/01/05 06:41:48;;;;;;;18.30;12.43;;;;;;;0.48;77.11;101613.86;1724640;81;21054;-73
2021/01/05 06:44:16;;;;;;;16.73;11.05;;;;;;;0.50;77.06;101616.01;1724708;81;21013;-74
2021/01/05 06:46:53;;;;;;;13.60;9.40;;;;;;;0.53;76.81;101612.97;1724791;81;21045;-74
2021/01/05 06:49:26;;;;;;;21.77;11.43;;;;;;;0.53;76.60;101603.94;1721363;81;20962;-76
2021/01/05 06:51:53;;;;;;;12.45;9.28;;;;;;;0.53;76.64;101609.09;1724825;81;20946;-74
2021/01/05 06:54:23;;;;;;;15.32;10.85;;;;;;;0.57;76.71;101610.81;1724868;81;20934;-75
2021/01/05 06:56:56;;;;;;;16.97;9.83;;;;;;;0.63;76.72;101609.10;1696010;81;21022;-75
2021/01/05 06:59:25;;;;;;;23.07;12.88;;;;;;;0.65;76.76;101600.92;1724808;81;22066;-73
2021/01/05 07:01:57;;;;;;;16.50;10.58;;;;;;;0.67;76.74;101596.18;1754604;81;20963;-72
2021/01/05 07:04:25;;;;;;;14.95;10.20;;;;;;;0.71;76.81;101605.64;1725249;81;21025;-73
2021/01/05 07:06:53;;;;;;;24.87;11.00;;;;;;;0.78;76.67;101601.31;1725188;81;20970;-74
2021/01/05 07:09:23;;;;;;;12.85;8.63;;;;;;;0.83;76.43;101596.53;1724901;81;21532;-73
2021/01/05 07:11:52;;;;;;;14.63;9.13;;;;;;;0.86;76.21;101593.52;1725197;81;23026;-73
2021/01/05 07:14:24;;;;;;;12.07;8.15;;;;;;;0.83;75.94;101590.08;1725207;81;21044;-73
2021/01/05 07:16:52;;;;;;;15.20;9.38;;;;;;;0.81;75.96;101587.94;1725045;81;21041;-73
2021/01/05 07:19:20;;;;;;;20.50;11.28;;;;;;;0.83;75.83;101574.59;1725017;81;21527;-73
2021/01/05 07:21:48;;;;;;;18.70;9.63;;;;;;;0.85;75.77;101572.45;1725140;81;21017;-73
2021/01/05 07:24:16;;;;;;;14.63;9.15;;;;;;;0.85;75.64;101575.89;1724979;81;21102;-75
2021/01/05 07:26:49;;;;;;;13.65;8.55;;;;;;;0.84;75.49;101579.31;1725275;81;20986;-73
2021/01/05 07:29:20;;;;;;;14.47;8.13;;;;;;;0.82;75.56;101566.84;1725335;81;20989;-76
2021/01/05 07:31:49;;;;;;;13.60;8.50;;;;;;;0.82;75.60;101572.89;1725133;81;21017;-75
2021/01/05 07:34:17;;;;;;;13.15;8.13;;;;;;;0.82;75.71;101562.97;1724802;81;21035;-76
2021/01/05 07:36:57;;;;;;;13.18;8.98;;;;;;;0.81;75.75;101567.72;1724338;81;21178;-73
2021/01/05 07:39:29;;;;;;;13.08;8.75;;;;;;;0.84;75.73;101578.02;1724436;81;21526;-75
2021/01/05 07:42:28;;;;;;;14.93;9.70;;;;;;;0.86;75.56;101580.61;1724675;81;20998;-74
2021/01/05 07:45:03;;;;;;;17.42;10.90;;;;;;;0.90;75.47;101570.26;1724642;81;21511;-75
2021/01/05 07:47:37;;;;;;;17.60;10.78;;;;;;;0.90;75.50;101568.11;1724670;81;20914;-73
2021/01/05 07:50:11;;;;;;;27.75;12.60;;;;;;;0.90;75.49;101559.93;1724593;81;21005;-74
2021/01/05 07:52:40;;;;;;;26.42;14.87;;;;;;;0.91;75.56;101554.33;1724584;81;21056;-76
2021/01/05 07:55:21;;;;;;;24.47;11.95;;;;;;;0.92;75.59;101556.91;1754272;81;21013;-75
2021/01/05 07:57:52;;;;;;;20.70;11.10;;;;;;;1.01;75.54;101559.88;1724405;81;20998;-76
2021/01/05 08:00:28;;;;;;;20.48;11.33;;;;;;;1.05;75.44;101565.90;1724582;81;20919;-76
2021/01/05 08:02:57;;;;;;;19.65;11.10;;;;;;;1.13;75.35;101552.05;1724523;81;21975;-74
2021/01/05 08:05:28;;;;;;;21.85;12.28;;;;;;;1.23;75.13;101542.53;1745440;80;21074;-74
2021/01/05 08:07:57;;;;;;;17.80;10.63;;;;;;;1.28;74.88;101547.23;1722883;82;21006;-74
2021/01/05 08:10:37;;;;;;;18.20;10.58;;;;;;;1.35;74.56;101546.75;1722410;82;21138;-74
2021/01/05 08:13:10;;;;;;;22.42;11.43;;;;;;;1.36;74.20;101554.50;1723106;82;21033;-75
2021/01/05 08:15:40;;;;;;;19.23;10.82;;;;;;;1.33;74.23;101532.98;1744303;82;21409;-76
2021/01/05 08:18:09;;;;;;;19.77;12.93;;;;;;;1.36;74.23;101531.25;1722816;82;21042;-76
2021/01/05 08:20:37;;;;;;;18.55;10.15;;;;;;;1.38;74.12;101533.80;1722780;82;21002;-76
2021/01/05 08:23:05;;;;;;;15.50;10.50;;;;;;;1.38;74.24;101537.27;1722709;82;21053;-74
2021/01/05 08:25:34;;;;;;;22.70;11.10;;;;;;;1.40;74.09;101535.53;1723022;82;20899;-73
2021/01/05 08:28:02;;;;;;;19.52;11.40;;;;;;;1.42;74.08;101545.42;1723065;82;21235;-73
2021/01/05 08:30:34;;;;;;;17.02;11.38;;;;;;;1.42;73.97;101531.20;1722920;82;20974;-74
2021/01/05 08:33:06;;;;;;;14.35;9.63;;;;;;;1.45;73.86;101518.25;1723309;82;20975;-73
2021/01/05 08:35:35;;;;;;;15.53;9.43;;;;;;;1.49;73.62;101520.39;1746125;81;21355;-73
2021/01/05 08:38:05;;;;;;;27.62;15.08;;;;;;;1.47;73.82;101514.38;1724895;82;20962;-75
2021/01/05 08:40:34;;;;;;;24.63;15.32;;;;;;;1.47;73.95;101514.38;1722870;82;21182;-75
2021/01/05 08:43:06;;;;;;;32.83;15.55;;;;;;;1.49;73.88;101517.80;1722974;82;21497;-76
2021/01/05 08:45:36;;;;;;;19.87;11.75;;;;;;;1.54;73.90;101515.17;1722567;82;21393;-74
2021/01/05 08:48:05;;;;;;;21.42;11.35;;;;;;;1.58;73.80;101509.97;1722740;82;20950;-74
2021/01/05 08:50:33;;;;;;;21.42;12.33;;;;;;;1.64;73.59;101502.58;1723059;82;21374;-75
2021/01/05 08:53:04;;;;;;;23.45;13.32;;;;;;;1.72;73.25;101502.08;1722963;82;21986;-73
2021/01/05 08:55:38;;;;;;;21.70;12.47;;;;;;;1.77;73.13;101498.16;1722978;82;20987;-76
2021/01/05 08:58:06;;;;;;;15.83;12.00;;;;;;;1.81;72.93;101494.23;1723156;82;21062;-73
2021/01/05 09:00:35;;;;;;;19.67;13.03;;;;;;;1.84;72.82;101494.64;1722983;82;20994;-76
2021/01/05 09:03:03;;;;;;;18.65;12.65;;;;;;;1.87;72.53;101495.92;1722746;82;21018;-74
2021/01/05 09:05:33;;;;;;;21.20;13.98;;;;;;;1.86;72.57;101493.74;1716636;81;21928;-75
2021/01/05 09:08:00;;;;;;;20.45;14.15;;;;;;;1.91;72.35;101494.98;1717328;82;21538;-75
2021/01/05 09:10:28;;;;;;;22.52;12.18;;;;;;;1.96;72.28;101493.68;1717433;82;20986;-76
2021/01/05 09:12:57;;;;;;;20.08;13.05;;;;;;;1.99;72.09;101488.46;1717275;82;21021;-74
2021/01/05 09:15:26;;;;;;;21.73;13.83;;;;;;;2.01;72.33;101477.66;1717303;82;21085;-77
2021/01/05 09:17:55;;;;;;;24.90;16.73;;;;;;;2.05;72.10;101475.02;1717456;82;20966;-77
2021/01/05 09:20:24;;;;;;;25.70;14.10;;;;;;;2.10;72.16;101485.32;1718248;82;20962;-81
2021/01/05 09:22:56;;;;;;;21.27;13.35;;;;;;;2.16;71.84;101484.41;1717624;82;21397;-82
2021/01/05 09:25:25;;;;;;;15.75;12.15;;;;;;;2.17;71.33;101478.34;1717418;82;20955;-78
2021/01/05 09:27:53;;;;;;;21.00;13.28;;;;;;;2.14;71.08;101470.63;1717313;82;21011;-83
2021/01/05 09:30:21;;;;;;;20.40;13.85;;;;;;;2.15;71.11;101470.59;1717488;82;21172;-81
2021/01/05 09:32:50;;;;;;;27.48;17.62;;;;;;;2.16;71.25;101471.03;1717372;82;21082;-81
2021/01/05 09:35:18;;;;;;;24.80;17.90;;;;;;;2.20;71.10;101455.89;1717438;81;21440;-78
2021/01/05 09:37:49;;;;;;;26.57;17.52;;;;;;;2.24;70.99;101460.58;1717426;82;21042;-79
2021/01/05 09:40:18;;;;;;;29.67;16.45;;;;;;;2.27;71.20;101447.62;1717501;82;21456;-79
2021/01/05 09:42:46;;;;;;;36.60;19.87;;;;;;;2.35;71.03;101461.74;1717489;82;21969;-81
2021/01/05 09:45:15;;;;;;;25.55;16.95;;;;;;;2.41;70.85;101461.67;1717292;82;20994;-80
2021/01/05 09:47:44;;;;;;;25.62;17.42;;;;;;;2.47;70.61;101451.25;1717414;82;20966;-81
2021/01/05 09:50:14;;;;;;;29.02;18.25;;;;;;;2.52;70.73;101462.84;1717339;82;20974;-81
2021/01/05 09:52:42;;;;;;;27.17;16.35;;;;;;;2.59;70.15;101461.88;1717370;82;20982;-79
2021/01/05 09:55:11;;;;;;;27.55;16.70;;;;;;;2.61;70.12;101448.47;1717349;82;21823;-79
2021/01/05 09:57:40;;;;;;;34.73;18.87;;;;;;;2.65;69.76;101435.91;1717253;82;21062;-78
2021/01/05 10:00:09;;;;;;;26.82;15.23;;;;;;;2.67;69.71;101427.23;1717499;82;21021;-82
2021/01/05 10:02:37;;;;;;;25.12;16.60;;;;;;;2.71;69.65;101434.50;1717528;82;20998;-80
2021/01/05 10:05:07;;;;;;;21.10;13.78;;;;;;;2.75;69.49;101418.48;1720872;81;21029;-78
2021/01/05 10:07:35;;;;;;;19.85;13.70;;;;;;;2.81;69.50;101410.19;1725500;81;21376;-78
2021/01/05 10:10:04;;;;;;;20.08;13.00;;;;;;;2.85;69.30;101408.42;1725540;81;20993;-76
2021/01/05 10:12:32;;;;;;;18.02;13.93;;;;;;;2.86;68.89;101416.59;1727169;81;21073;-76
2021/01/05 10:18:34;;;;;;;;;;;;;;;;;;;;;
2021/01/05 10:22:05;;;;;;;21.55;16.15;;;;;;;2.94;68.69;101403.53;1818360;77;27931;-77
2021/01/05 10:24:33;;;;;;;25.30;18.75;;;;;;;2.88;68.66;101388.48;1749788;80;21551;-78
2021/01/05 10:27:01;;;;;;;23.35;15.90;;;;;;;2.85;68.72;101378.19;1746724;78;22062;-80
2021/01/05 10:29:29;;;;;;;19.32;13.50;;;;;;;2.86;68.80;101383.77;1751161;80;21060;-81
2021/01/05 10:31:57;;;;;;;17.80;13.85;;;;;;;2.88;68.91;101378.56;1755371;80;20934;-78
2021/01/05 10:34:25;;;;;;;17.87;14.10;;;;;;;2.88;68.89;101372.94;1753572;80;20942;-82
2021/01/05 10:36:58;;;;;;;17.12;13.83;;;;;;;2.89;68.94;101372.08;1744491;80;20934;-77
2021/01/05 10:39:27;;;;;;;17.10;14.05;;;;;;;2.91;68.73;101365.55;1739086;80;21175;-76
2021/01/05 10:41:57;;;;;;;27.20;17.73;;;;;;;2.88;68.67;101366.91;1753139;80;21009;-77
2021/01/05 10:44:26;;;;;;;25.12;16.10;;;;;;;2.80;68.97;101351.51;1756917;80;20994;-76
2021/01/05 10:47:02;;;;;;;20.30;14.58;;;;;;;2.80;69.01;101364.88;1754832;80;21129;-77
2021/01/05 10:49:31;;;;;;;23.05;16.30;;;;;;;2.79;69.11;101358.00;1750586;80;21070;-77
2021/01/05 10:52:01;;;;;;;20.45;15.25;;;;;;;2.80;69.30;101356.69;1757343;78;21253;-78
2021/01/05 10:54:29;;;;;;;21.20;14.05;;;;;;;2.83;69.47;101355.78;1753413;79;21042;-76
2021/01/05 10:57:03;;;;;;;13.43;10.53;;;;;;;2.87;69.12;101340.16;1755696;80;20939;-77
2021/01/05 10:59:32;;;;;;;;;;;;;;;2.89;69.12;101348.77;1754594;79;20939;-78
2021/01/05 11:02:02;;;;;;;12.50;9.85;;;;;;;2.88;69.24;101334.53;1751335;80;20151;-80
2021/01/05 11:04:31;;;;;;;18.32;11.60;;;;;;;2.87;69.15;101341.45;1748014;80;22220;-75
2021/01/05 11:07:05;;;;;;;13.62;11.03;;;;;;;2.85;69.35;101337.19;1756215;80;20983;-76
2021/01/05 11:09:33;;;;;;;;;;;;;;;2.86;69.44;101334.99;1752968;80;20978;-78
2021/01/05 11:12:06;;;;;;;17.67;12.23;;;;;;;2.87;69.50;101342.75;1750047;79;20152;-78
2021/01/05 11:14:33;;;;;;;16.48;11.15;;;;;;;2.83;69.58;101331.17;1736946;78;20970;-79
2021/01/05 11:17:01;;;;;;;17.85;11.38;;;;;;;2.82;69.78;101331.59;1752078;79;21171;-77
2021/01/05 11:19:30;;;;;;;16.95;9.68;;;;;;;2.82;69.73;101331.59;1746920;79;21538;-78
2021/01/05 11:22:16;;;;;;;13.35;8.10;;;;;;;2.86;69.70;101314.27;1745271;80;21559;-78
2021/01/05 11:24:47;;;;;;;13.13;10.20;;;;;;;2.88;69.68;101324.17;1755559;80;20950;-78
2021/01/05 11:27:18;;;;;;;15.35;10.63;;;;;;;2.86;69.68;101319.00;1745827;80;22479;-77
2021/01/05 11:29:46;;;;;;;14.33;11.22;;;;;;;2.86;69.79;101315.12;1759456;79;21168;-77
2021/01/05 11:32:16;;;;;;;19.60;11.28;;;;;;;2.87;69.81;101318.14;1745570;80;21078;-78
2021/01/05 11:34:45;;;;;;;20.27;12.05;;;;;;;2.90;69.84;101313.34;1753903;80;20939;-77
2021/01/05 11:37:20;;;;;;;14.63;10.40;;;;;;;2.90;69.76;101306.42;1761475;80;21010;-77
2021/01/05 11:39:49;;;;;;;16.05;9.45;;;;;;;2.91;69.79;101311.16;1743318;80;21684;-76
2021/01/05 11:42:22;;;;;;;12.50;8.35;;;;;;;2.92;69.86;101311.59;1751517;79;21105;-77
2021/01/05 11:44:50;;;;;;;17.20;10.03;;;;;;;2.94;69.86;101308.98;1749634;80;21108;-78
2021/01/05 11:47:21;;;;;;;16.65;9.93;;;;;;;2.95;69.64;101308.93;1750279;79;21575;-79
2021/01/05 11:49:51;;;;;;;11.50;8.70;;;;;;;2.94;69.86;101302.05;1721891;82;21053;-80
2021/01/05 11:52:19;;;;;;;14.93;9.08;;;;;;;2.97;69.57;101295.96;1719954;82;21018;-80
2021/01/05 11:54:47;;;;;;;12.45;9.33;;;;;;;2.98;69.61;101303.72;1719941;82;22559;-81
2021/01/05 11:57:16;;;;;;;14.80;9.48;;;;;;;2.99;69.48;101295.49;1718473;82;21488;-80
2021/01/05 11:59:55;;;;;;;12.05;7.83;;;;;;;2.97;69.47;101304.58;1673698;83;21549;-79
2021/01/05 12:02:21;;;;;;;9.33;7.17;;;;;;;2.94;69.51;101307.23;1718152;82;21073;-77
2021/01/05 12:18:01;;;;;;;12.40;8.88;;;;;;;2.77;70.33;101320.91;1824991;78;22853;-78
2021/01/05 12:20:29;;;;;;;11.85;9.03;;;;;;;2.64;70.49;101317.20;1769005;79;20954;-79